Time;durP1;ratioP1;P1;durP2;ratioP2;P2;SDS_P1;SDS_P2;PMS_P1;PMS_P2;Temp;Humidity;BMP_temperature;BMP_pressure;BME280_temperature;BME280_humidity;BME280_pressure;Samples;Min_cycle;Max_cycle;Signal;HPM_P1;HPM_P2
2021/03/24 00:01:16;;;;;;;;;;;5.60;99.90;;;;;;5091690;28;19923;-63
2021/03/24 00:03:42;;;;;;;;;;;5.60;99.90;;;;;;5088317;28;19912;-61
2021/03/24 00:06:08;;;;;;;;;;;5.60;99.90;;;;;;5087746;28;20356;-61
2021/03/24 00:08:34;;;;;;;;;;;5.60;99.90;;;;;;5089114;28;19999;-61
2021/03/24 00:11:00;;;;;;;;;;;5.60;99.90;;;;;;5089736;28;19917;-61
2021/03/24 00:13:26;;;;;;;;;;;5.60;99.90;;;;;;5089434;28;19916;-62
2021/03/24 00:15:52;;;;;;;;;;;5.50;99.90;;;;;;5085469;28;19927;-61
2021/03/24 00:18:18;;;;;;;;;;;5.50;99.90;;;;;;5089276;28;19997;-61
2021/03/24 00:20:44;;;;;;;;;;;5.50;99.90;;;;;;5087515;28;19912;-63
2021/03/24 00:23:10;;;;;;;;;;;5.50;99.90;;;;;;5087234;28;20285;-64
2021/03/24 00:25:36;;;;;;;;;;;5.50;99.90;;;;;;5088271;28;19912;-64
2021/03/24 00:28:02;;;;;;;;;;;5.50;99.90;;;;;;5088474;28;19969;-63
2021/03/24 00:30:29;;;;;;;;;;;5.50;99.90;;;;;;5091253;28;19912;-64
2021/03/24 00:32:55;;;;;;;;;;;5.50;99.90;;;;;;5090992;28;19931;-64
2021/03/24 00:35:21;;;;;;;;;;;5.50;99.90;;;;;;5087273;28;19986;-64
2021/03/24 00:37:47;;;;;;;;;;;5.50;99.90;;;;;;5089464;28;19919;-64
2021/03/24 00:40:20;;;;;;;;;;;5.50;99.90;;;;;;5090545;28;19913;-61
2021/03/24 00:42:46;;;;;;;;;;;5.50;99.90;;;;;;5088830;28;19920;-61
2021/03/24 00:45:13;;;;;;;;;;;5.50;99.90;;;;;;5087864;28;19920;-64
2021/03/24 00:47:39;;;;;;;;;;;5.50;99.90;;;;;;5090379;28;19924;-64
2021/03/24 00:50:05;;;;;;;;;;;5.50;99.90;;;;;;5083141;28;19920;-65
2021/03/24 00:52:31;;;;;;;;;;;5.50;99.90;;;;;;5085728;28;19913;-64
2021/03/24 00:54:57;;;;;;;;;;;5.50;99.90;;;;;;5088972;28;20379;-64
2021/03/24 00:57:23;;;;;;;;;;;5.40;99.90;;;;;;5091392;28;19939;-64
2021/03/24 00:59:49;;;;;;;;;;;5.50;99.90;;;;;;5090582;28;20027;-64
2021/03/24 01:02:14;;;;;;;;;;;5.50;99.90;;;;;;5088499;28;19916;-62
2021/03/24 01:04:41;;;;;;;;;;;5.50;99.90;;;;;;5088881;28;19916;-61
2021/03/24 01:07:08;;;;;;;;;;;5.50;99.90;;;;;;5089513;28;19912;-64
2021/03/24 01:09:34;;;;;;;;;;;5.50;99.90;;;;;;5089637;28;20265;-61
2021/03/24 01:12:00;;;;;;;;;;;5.60;99.90;;;;;;5088470;28;19951;-62
2021/03/24 01:14:26;;;;;;;;;;;5.60;99.90;;;;;;5084961;28;19924;-62
2021/03/24 01:16:51;;;;;;;;;;;5.50;99.90;;;;;;5089287;28;19920;-62
2021/03/24 01:19:17;;;;;;;;;;;5.60;99.90;;;;;;5086735;28;19936;-62
2021/03/24 01:21:43;;;;;;;;;;;5.60;99.90;;;;;;5084234;28;20364;-62
2021/03/24 01:24:09;;;;;;;;;;;5.60;99.90;;;;;;5088829;28;20364;-62
2021/03/24 01:26:35;;;;;;;;;;;5.60;99.90;;;;;;5088417;28;19916;-63
2021/03/24 01:29:01;;;;;;;;;;;5.60;99.90;;;;;;5091087;28;19924;-62
2021/03/24 01:31:27;;;;;;;;;;;5.60;99.90;;;;;;5093339;28;20265;-62
2021/03/24 01:33:53;;;;;;;;;;;5.60;99.90;;;;;;5091461;28;20406;-62
2021/03/24 01:36:19;;;;;;;;;;;5.60;99.90;;;;;;5093019;28;19928;-62
2021/03/24 01:38:45;;;;;;;;;;;5.60;99.90;;;;;;5093681;28;19919;-62
2021/03/24 01:41:11;;;;;;;;;;;5.60;99.90;;;;;;5092290;28;19924;-62
2021/03/24 01:43:37;;;;;;;;;;;5.60;99.90;;;;;;5094617;28;19916;-62
2021/03/24 01:46:18;;;;;;;;;;;5.60;99.90;;;;;;5091474;28;20496;-62
2021/03/24 01:48:55;;;;;;;;;;;5.60;99.90;;;;;;5088974;28;19927;-62
2021/03/24 01:51:31;;;;;;;;;;;5.60;99.90;;;;;;5087877;28;19912;-62
2021/03/24 01:53:57;;;;;;;;;;;5.60;99.90;;;;;;5094048;28;20315;-62
2021/03/24 01:56:23;;;;;;;;;;;5.60;99.90;;;;;;5092407;28;19921;-62
2021/03/24 01:58:49;;;;;;;;;;;5.60;99.90;;;;;;5093832;28;19927;-62
2021/03/24 02:01:16;;;;;;;;;;;5.70;99.90;;;;;;5094166;28;19916;-62
2021/03/24 02:03:42;;;;;;;;;;;5.70;99.90;;;;;;5091570;28;19919;-62
2021/03/24 02:06:14;;;;;;;;;;;5.70;99.90;;;;;;5087279;28;20010;-62
2021/03/24 02:08:41;;;;;;;;;;;5.70;99.90;;;;;;5090053;28;19923;-62
2021/03/24 02:11:13;;;;;;;;;;;5.70;99.90;;;;;;5090997;28;20284;-62
2021/03/24 02:13:43;;;;;;;;;;;5.70;99.90;;;;;;5094052;28;19923;-62
2021/03/24 02:16:14;;;;;;;;;;;5.80;99.90;;;;;;5075108;28;19928;-62
2021/03/24 02:18:40;;;;;;;;;;;5.70;99.90;;;;;;5092455;28;20353;-62
2021/03/24 02:21:25;;;;;;;;;;;5.80;99.90;;;;;;5091738;28;19921;-62
2021/03/24 02:23:54;;;;;;;;;;;5.80;99.90;;;;;;5081130;28;19923;-62
2021/03/24 02:26:39;;;;;;;;;;;5.90;99.90;;;;;;5090892;28;20361;-62
2021/03/24 02:29:05;;;;;;;;;;;5.80;99.90;;;;;;5089506;28;19932;-62
2021/03/24 02:31:32;;;;;;;;;;;5.80;99.90;;;;;;5093621;28;20300;-62
2021/03/24 02:33:58;;;;;;;;;;;5.90;99.90;;;;;;5090545;28;19912;-62
2021/03/24 02:36:24;;;;;;;;;;;5.90;99.90;;;;;;5091800;28;19943;-62
2021/03/24 02:38:50;;;;;;;;;;;5.80;99.90;;;;;;5091767;28;19912;-62
2021/03/24 02:41:16;;;;;;;;;;;5.80;99.90;;;;;;5091172;28;20292;-62
2021/03/24 02:43:42;;;;;;;;;;;5.80;99.90;;;;;;5089607;28;19916;-62
2021/03/24 02:46:09;;;;;;;;;;;5.80;99.90;;;;;;5086233;28;20341;-62
2021/03/24 02:48:35;;;;;;;;;;;5.80;99.90;;;;;;5088798;28;20369;-62
2021/03/24 02:51:02;;;;;;;;;;;5.80;99.90;;;;;;5103777;28;20277;-62
2021/03/24 02:53:28;;;;;;;;;;;5.80;99.90;;;;;;5090646;28;19919;-62
2021/03/24 02:55:55;;;;;;;;;;;5.80;99.90;;;;;;5107626;28;19921;-62
2021/03/24 02:58:20;;;;;;;;;;;5.80;99.90;;;;;;5089497;28;19936;-62
2021/03/24 03:00:47;;;;;;;;;;;5.80;99.90;;;;;;5091589;28;19913;-62
2021/03/24 03:03:33;;;;;;;;;;;5.80;99.90;;;;;;5090847;28;19920;-62
2021/03/24 03:05:59;;;;;;;;;;;5.80;99.90;;;;;;5087612;28;19927;-62
2021/03/24 03:08:27;;;;;;;;;;;5.80;99.90;;;;;;5089884;28;19912;-62
2021/03/24 03:10:53;;;;;;;;;;;5.80;99.90;;;;;;5088462;28;20288;-61
2021/03/24 03:13:19;;;;;;;;;;;5.80;99.90;;;;;;5089191;28;19920;-62
2021/03/24 03:15:46;;;;;;;;;;;5.70;99.90;;;;;;5090296;28;20357;-62
2021/03/24 03:18:23;;;;;;;;;;;5.70;99.90;;;;;;5089752;28;19912;-62
2021/03/24 03:20:50;;;;;;;;;;;5.70;99.90;;;;;;5088465;28;21123;-62
2021/03/24 03:23:20;;;;;;;;;;;5.60;99.90;;;;;;5088794;28;19916;-62
2021/03/24 03:25:48;;;;;;;;;;;5.60;99.90;;;;;;5084966;28;19912;-62
2021/03/24 03:28:14;;;;;;;;;;;5.50;99.90;;;;;;5073065;28;19916;-62
2021/03/24 03:30:40;;;;;;;;;;;5.50;99.90;;;;;;5090774;28;19979;-62
2021/03/24 03:33:07;;;;;;;;;;;5.50;99.90;;;;;;5087827;28;19920;-62
2021/03/24 03:35:33;;;;;;;;;;;5.50;99.90;;;;;;5088487;28;19920;-62
2021/03/24 03:37:59;;;;;;;;;;;5.50;99.90;;;;;;5090600;28;19916;-62
2021/03/24 03:40:26;;;;;;;;;;;5.50;99.90;;;;;;5086961;28;19919;-62
2021/03/24 03:42:52;;;;;;;;;;;5.40;99.90;;;;;;5087688;28;19915;-61
2021/03/24 03:45:18;;;;;;;;;;;5.50;99.90;;;;;;5088599;28;20280;-62
2021/03/24 03:47:44;;;;;;;;;;;5.40;99.90;;;;;;5089142;28;20349;-62
2021/03/24 03:50:12;;;;;;;;;;;5.50;99.90;;;;;;5090147;28;19916;-62
2021/03/24 03:52:41;;;;;;;;;;;5.40;99.90;;;;;;5090812;28;19912;-62
2021/03/24 03:55:27;;;;;;;;;;;5.40;99.90;;;;;;5089226;28;19916;-62
2021/03/24 03:57:54;;;;;;;;;;;5.50;99.90;;;;;;5087149;28;20277;-62
2021/03/24 04:00:27;;;;;;;;;;;5.50;99.90;;;;;;5089086;28;20368;-62
2021/03/24 04:03:09;;;;;;;;;;;5.60;99.90;;;;;;5089527;28;19927;-62
2021/03/24 04:05:42;;;;;;;;;;;5.60;99.90;;;;;;5070775;28;19912;-61
2021/03/24 04:08:13;;;;;;;;;;;5.60;99.90;;;;;;5084906;28;20304;-62
2021/03/24 04:10:41;;;;;;;;;;;5.60;99.90;;;;;;5090655;28;19916;-62
2021/03/24 04:13:07;;;;;;;;;;;5.50;99.90;;;;;;5085423;28;20265;-62
2021/03/24 04:15:33;;;;;;;;;;;5.50;99.90;;;;;;5086056;28;19974;-62
2021/03/24 04:18:03;;;;;;;;;;;5.50;99.90;;;;;;5088628;28;19927;-61
2021/03/24 04:20:29;;;;;;;;;;;5.50;99.90;;;;;;5088373;28;20281;-62
2021/03/24 04:22:55;;;;;;;;;;;5.50;99.90;;;;;;5088895;28;19916;-62
2021/03/24 04:25:41;;;;;;;;;;;5.50;99.90;;;;;;5084777;28;20297;-63
2021/03/24 04:28:07;;;;;;;;;;;5.50;99.90;;;;;;5086340;28;19924;-62
2021/03/24 04:30:34;;;;;;;;;;;5.50;99.90;;;;;;5101230;28;21672;-62
2021/03/24 04:33:00;;;;;;;;;;;5.60;99.90;;;;;;5081443;28;20411;-62
2021/03/24 04:35:26;;;;;;;;;;;5.60;99.90;;;;;;5083084;28;19920;-61
2021/03/24 04:37:53;;;;;;;;;;;5.60;99.90;;;;;;5085519;28;19912;-62
2021/03/24 04:40:27;;;;;;;;;;;5.60;99.90;;;;;;5084597;28;19916;-62
2021/03/24 04:43:01;;;;;;;;;;;5.60;99.90;;;;;;5089608;28;19913;-62
2021/03/24 04:45:45;;;;;;;;;;;5.60;99.90;;;;;;5086139;28;20257;-62
2021/03/24 04:48:13;;;;;;;;;;;5.60;99.90;;;;;;5085591;28;19920;-62
2021/03/24 04:50:40;;;;;;;;;;;5.60;99.90;;;;;;5082966;28;19912;-61
2021/03/24 04:53:05;;;;;;;;;;;5.70;99.90;;;;;;5087586;28;19912;-62
2021/03/24 04:55:31;;;;;;;;;;;5.70;99.90;;;;;;5090829;28;19920;-62
2021/03/24 04:57:58;;;;;;;;;;;5.70;99.90;;;;;;5091963;28;20296;-62
2021/03/24 05:00:30;;;;;;;;;;;5.70;99.90;;;;;;5089434;28;19916;-62
2021/03/24 05:02:57;;;;;;;;;;;5.60;99.90;;;;;;5076637;28;20487;-62
2021/03/24 05:05:26;;;;;;;;;;;5.60;99.90;;;;;;5079969;28;19916;-62
2021/03/24 05:08:04;;;;;;;;;;;5.70;99.90;;;;;;5080051;28;19919;-62
2021/03/24 05:10:31;;;;;;;;;;;5.70;99.90;;;;;;5077403;28;19920;-62
2021/03/24 05:13:00;;;;;;;;;;;5.80;99.90;;;;;;5078348;28;19912;-62
2021/03/24 05:15:31;;;;;;;;;;;5.70;99.90;;;;;;5083013;28;19916;-62
2021/03/24 05:17:57;;;;;;;;;;;5.70;99.90;;;;;;5078351;28;19928;-61
2021/03/24 05:20:23;;;;;;;;;;;5.70;99.90;;;;;;5088863;28;19935;-62
2021/03/24 05:22:49;;;;;;;;;;;5.70;99.90;;;;;;5086312;28;19923;-62
2021/03/24 05:25:31;;;;;;;;;;;5.70;99.90;;;;;;5086111;28;19908;-62
2021/03/24 05:27:58;;;;;;;;;;;5.70;99.90;;;;;;5099867;28;19920;-62
2021/03/24 05:30:29;;;;;;;;;;;5.70;99.90;;;;;;5085174;28;21964;-62
2021/03/24 05:32:58;;;;;;;;;;;5.70;99.90;;;;;;5083110;28;19919;-62
2021/03/24 05:35:24;;;;;;;;;;;5.70;99.90;;;;;;5077812;28;20383;-62
2021/03/24 05:37:50;;;;;;;;;;;5.70;99.90;;;;;;5084914;28;19916;-62
2021/03/24 05:40:34;;;;;;;;;;;5.70;99.90;;;;;;5082967;28;19915;-62
2021/03/24 05:43:12;;;;;;;;;;;5.70;99.90;;;;;;5081689;28;20317;-63
2021/03/24 05:45:41;;;;;;;;;;;5.70;99.90;;;;;;5100221;28;19908;-62
2021/03/24 05:48:07;;;;;;;;;;;5.70;99.90;;;;;;5083823;28;19920;-63
2021/03/24 05:50:42;;;;;;;;;;;5.60;99.90;;;;;;5082284;28;19908;-62
2021/03/24 05:53:17;;;;;;;;;;;5.70;99.90;;;;;;5081959;28;20250;-62
2021/03/24 05:55:51;;;;;;;;;;;5.70;99.90;;;;;;5100162;28;20394;-63
2021/03/24 05:58:17;;;;;;;;;;;5.70;99.90;;;;;;5097707;28;19912;-63
2021/03/24 06:00:52;;;;;;;;;;;5.70;99.90;;;;;;5086418;28;20331;-62
2021/03/24 06:03:27;;;;;;;;;;;5.70;99.90;;;;;;5085066;28;20288;-62
2021/03/24 06:06:11;;;;;;;;;;;5.70;99.90;;;;;;5085558;28;20261;-62
2021/03/24 06:08:46;;;;;;;;;;;5.70;99.90;;;;;;5086795;28;19915;-63
2021/03/24 06:11:26;;;;;;;;;;;5.70;99.90;;;;;;5085335;28;19931;-63
2021/03/24 06:13:52;;;;;;;;;;;5.70;99.90;;;;;;5084291;28;19909;-62
2021/03/24 06:16:26;;;;;;;;;;;5.80;99.90;;;;;;5083707;28;20022;-63
2021/03/24 06:18:55;;;;;;;;;;;5.70;99.90;;;;;;5083406;28;19912;-63
2021/03/24 06:21:24;;;;;;;;;;;5.70;99.90;;;;;;5083764;28;19916;-63
2021/03/24 06:23:53;;;;;;;;;;;5.70;99.90;;;;;;5079915;28;19923;-63
2021/03/24 06:26:34;;;;;;;;;;;5.70;99.90;;;;;;5081072;28;19924;-63
2021/03/24 06:29:18;;;;;;;;;;;5.70;99.90;;;;;;5083311;28;19928;-64
2021/03/24 06:32:02;;;;;;;;;;;5.70;99.90;;;;;;5080808;28;19913;-63
2021/03/24 06:34:31;;;;;;;;;;;5.70;99.90;;;;;;5084695;28;20320;-63
2021/03/24 06:37:02;;;;;;;;;;;5.70;99.90;;;;;;5091759;28;19953;-63
2021/03/24 06:39:33;;;;;;;;;;;5.80;99.90;;;;;;5082828;28;20321;-63
2021/03/24 06:41:59;;;;;;;;;;;5.70;99.90;;;;;;5088368;28;19912;-63
2021/03/24 06:44:43;;;;;;;;;;;5.80;99.90;;;;;;5091856;28;19920;-63
2021/03/24 06:47:12;;;;;;;;;;;5.80;99.90;;;;;;5091251;28;19912;-63
2021/03/24 06:49:37;;;;;;;;;;;5.70;99.90;;;;;;5090399;28;19912;-63
2021/03/24 06:52:12;;;;;;;;;;;5.80;99.90;;;;;;5090106;28;20011;-63
2021/03/24 06:54:57;;;;;;;;;;;5.80;99.90;;;;;;5090444;28;19912;-63
2021/03/24 06:57:35;;;;;;;;;;;5.80;99.90;;;;;;5093179;28;19920;-63
2021/03/24 07:00:00;;;;;;;;;;;5.80;99.90;;;;;;5091116;28;19919;-64
2021/03/24 07:02:32;;;;;;;;;;;5.80;99.90;;;;;;5090624;28;19912;-63
2021/03/24 07:05:11;;;;;;;;;;;5.80;99.90;;;;;;5087634;28;19912;-63
2021/03/24 07:07:42;;;;;;;;;;;5.90;99.90;;;;;;5089579;28;19912;-63
2021/03/24 07:10:16;;;;;;;;;;;5.90;99.90;;;;;;5088861;28;19912;-63
2021/03/24 07:12:51;;;;;;;;;;;6.00;99.90;;;;;;5087756;28;19935;-63
2021/03/24 07:15:28;;;;;;;;;;;5.90;99.90;;;;;;5089129;28;20379;-62
2021/03/24 07:18:00;;;;;;;;;;;5.90;99.90;;;;;;5091150;28;19920;-62
2021/03/24 07:20:29;;;;;;;;;;;6.00;99.90;;;;;;5087809;28;20273;-63
2021/03/24 07:23:10;;;;;;;;;;;6.00;99.90;;;;;;5091243;28;19913;-60
2021/03/24 07:25:45;;;;;;;;;;;6.00;99.90;;;;;;5089612;28;19912;-63
2021/03/24 07:28:11;;;;;;;;;;;6.00;99.90;;;;;;5090257;28;20281;-63
2021/03/24 07:30:37;;;;;;;;;;;5.90;99.90;;;;;;5090622;28;19940;-63
2021/03/24 07:33:04;;;;;;;;;;;5.90;99.90;;;;;;5091826;28;19952;-63
2021/03/24 07:35:34;;;;;;;;;;;5.90;99.90;;;;;;5088123;28;19920;-62
2021/03/24 07:38:02;;;;;;;;;;;6.00;99.90;;;;;;5091261;28;20186;-63
2021/03/24 07:40:32;;;;;;;;;;;6.00;99.90;;;;;;5090963;28;20300;-63
2021/03/24 07:43:34;;;;;;;;;;;6.00;99.90;;;;;;5091335;28;20288;-63
2021/03/24 07:46:11;;;;;;;;;;;6.10;99.90;;;;;;5063902;28;19912;-63
2021/03/24 07:48:42;;;;;;;;;;;6.00;99.90;;;;;;5082083;28;19920;-63
2021/03/24 07:51:09;;;;;;;;;;;6.20;99.90;;;;;;5087732;28;20419;-63
2021/03/24 07:53:40;;;;;;;;;;;6.10;99.90;;;;;;5088938;28;20373;-63
2021/03/24 07:56:18;;;;;;;;;;;6.20;99.90;;;;;;5089289;28;19923;-64
2021/03/24 07:58:44;;;;;;;;;;;6.20;99.90;;;;;;5089296;28;19916;-63
2021/03/24 08:01:13;;;;;;;;;;;6.40;99.90;;;;;;5090126;28;20415;-63
2021/03/24 08:03:42;;;;;;;;;;;6.40;99.90;;;;;;5083456;28;19915;-63
2021/03/24 08:06:12;;;;;;;;;;;6.60;99.90;;;;;;5088554;28;19932;-63
2021/03/24 08:08:50;;;;;;;;;;;6.60;99.90;;;;;;5089757;28;20369;-63
2021/03/24 08:11:24;;;;;;;;;;;6.60;99.90;;;;;;5089191;28;19912;-64
2021/03/24 08:13:50;;;;;;;;;;;6.70;99.90;;;;;;5087523;28;19916;-64
2021/03/24 08:16:28;;;;;;;;;;;6.70;99.90;;;;;;5088535;28;19935;-64
2021/03/24 08:18:54;;;;;;;;;;;6.70;99.90;;;;;;5088458;28;20364;-64
2021/03/24 08:21:25;;;;;;;;;;;6.90;99.90;;;;;;5090467;28;19930;-64
2021/03/24 08:23:56;;;;;;;;;;;7.00;99.90;;;;;;5088819;28;19935;-64
2021/03/24 08:26:25;;;;;;;;;;;7.10;99.90;;;;;;5082449;28;19919;-64
2021/03/24 08:29:09;;;;;;;;;;;7.10;99.90;;;;;;5084914;28;19931;-65
2021/03/24 08:31:38;;;;;;;;;;;7.20;99.90;;;;;;5090014;28;19923;-64
2021/03/24 08:34:16;;;;;;;;;;;7.20;99.90;;;;;;5088406;28;19912;-64
2021/03/24 08:36:59;;;;;;;;;;;7.10;99.90;;;;;;5088012;28;19935;-64
2021/03/24 08:39:32;;;;;;;;;;;7.30;99.90;;;;;;5068360;28;19920;-64
2021/03/24 08:42:16;;;;;;;;;;;7.50;99.90;;;;;;5088621;28;19914;-65
2021/03/24 08:44:48;;;;;;;;;;;7.40;99.90;;;;;;5087314;28;19912;-64
2021/03/24 08:47:19;;;;;;;;;;;7.50;99.90;;;;;;5087378;28;19912;-64
2021/03/24 08:49:46;;;;;;;;;;;7.40;99.90;;;;;;5089453;28;19909;-64
2021/03/24 08:52:20;;;;;;;;;;;7.50;99.90;;;;;;5090890;28;19929;-63
2021/03/24 08:55:00;;;;;;;;;;;7.50;99.90;;;;;;5091395;28;19908;-64
2021/03/24 08:57:48;;;;;;;;;;;7.60;99.90;;;;;;5090233;28;19927;-64
2021/03/24 09:00:20;;;;;;;;;;;7.60;99.90;;;;;;5070428;28;19912;-64
2021/03/24 09:02:48;;;;;;;;;;;7.50;99.90;;;;;;5085220;28;20306;-64
2021/03/24 09:05:19;;;;;;;;;;;7.60;99.90;;;;;;5086392;28;19935;-64
2021/03/24 09:07:51;;;;;;;;;;;7.60;99.90;;;;;;5087524;28;19912;-64
2021/03/24 09:10:17;;;;;;;;;;;7.60;99.90;;;;;;5085720;28;19920;-65
2021/03/24 09:12:44;;;;;;;;;;;7.60;99.90;;;;;;5090020;28;19919;-65
2021/03/24 09:15:10;;;;;;;;;;;7.60;99.90;;;;;;5086439;28;19916;-64
2021/03/24 09:17:55;;;;;;;;;;;7.50;99.90;;;;;;5090089;28;19920;-64
2021/03/24 09:20:20;;;;;;;;;;;7.50;99.90;;;;;;5086387;28;19938;-65
2021/03/24 09:23:15;;;;;;;;;;;7.40;99.90;;;;;;5090368;28;20372;-64
2021/03/24 09:26:11;;;;;;;;;;;7.40;99.90;;;;;;5086051;28;19919;-65
2021/03/24 09:28:37;;;;;;;;;;;7.40;99.90;;;;;;5069397;28;19925;-64
2021/03/24 09:31:32;;;;;;;;;;;7.50;99.90;;;;;;5091574;28;19950;-64
2021/03/24 09:33:58;;;;;;;;;;;7.50;99.90;;;;;;5072268;28;19909;-65
2021/03/24 09:36:30;;;;;;;;;;;7.40;99.90;;;;;;5091264;28;19920;-64
2021/03/24 09:38:56;;;;;;;;;;;7.50;99.90;;;;;;5092087;28;19908;-64
2021/03/24 09:41:23;;;;;;;;;;;7.60;99.90;;;;;;5090010;28;20010;-64
2021/03/24 09:43:56;;;;;;;;;;;7.60;99.90;;;;;;5090409;28;19908;-64
2021/03/24 09:46:29;;;;;;;;;;;7.70;99.90;;;;;;5087589;28;19983;-65
2021/03/24 09:48:56;;;;;;;;;;;7.70;99.90;;;;;;5091726;28;19916;-64
2021/03/24 09:51:23;;;;;;;;;;;7.70;99.90;;;;;;5092778;28;19912;-65
2021/03/24 09:53:49;;;;;;;;;;;7.90;99.90;;;;;;5094509;28;19908;-65
2021/03/24 09:56:16;;;;;;;;;;;7.90;99.90;;;;;;5093473;28;20258;-65
2021/03/24 09:58:51;;;;;;;;;;;7.90;99.90;;;;;;5092684;28;19924;-64
2021/03/24 10:01:17;;;;;;;;;;;8.00;99.90;;;;;;5094303;28;20272;-64
2021/03/24 10:03:46;;;;;;;;;;;7.90;99.90;;;;;;5093726;28;19918;-64
2021/03/24 10:06:17;;;;;;;;;;;8.00;99.90;;;;;;5091598;28;19919;-64
2021/03/24 10:08:47;;;;;;;;;;;8.00;99.90;;;;;;5095228;28;19908;-65
2021/03/24 10:11:14;;;;;;;;;;;8.10;99.90;;;;;;5095069;28;19908;-65
2021/03/24 10:13:44;;;;;;;;;;;8.30;99.90;;;;;;5094077;28;19915;-64
2021/03/24 10:16:10;;;;;;;;;;;8.40;99.90;;;;;;5093119;28;20307;-64
2021/03/24 10:18:38;;;;;;;;;;;8.40;99.90;;;;;;5090855;28;19913;-65
2021/03/24 10:21:11;;;;;;;;;;;8.40;99.90;;;;;;5089662;28;19913;-65
2021/03/24 10:23:38;;;;;;;;;;;8.30;99.90;;;;;;5092635;28;19912;-64
2021/03/24 10:26:14;;;;;;;;;;;8.30;99.90;;;;;;5093466;28;19916;-64
2021/03/24 10:28:42;;;;;;;;;;;8.30;99.90;;;;;;5093346;28;19928;-65
2021/03/24 10:31:11;;;;;;;;;;;8.40;99.90;;;;;;5093533;28;19923;-64
2021/03/24 10:33:45;;;;;;;;;;;8.40;99.90;;;;;;5093563;28;19912;-65
2021/03/24 10:36:35;;;;;;;;;;;8.30;99.90;;;;;;5092718;28;19923;-65
2021/03/24 10:39:05;;;;;;;;;;;8.30;99.90;;;;;;5089089;28;19916;-65
2021/03/24 10:41:36;;;;;;;;;;;8.20;99.90;;;;;;5090044;28;20442;-65
2021/03/24 10:44:04;;;;;;;;;;;8.20;99.90;;;;;;5090639;28;19923;-65
2021/03/24 10:46:30;;;;;;;;;;;8.20;99.90;;;;;;5086390;28;20281;-66
2021/03/24 10:48:56;;;;;;;;;;;8.10;99.90;;;;;;5092104;28;19919;-65
2021/03/24 10:51:26;;;;;;;;;;;8.20;99.90;;;;;;5090157;28;19912;-65
2021/03/24 10:54:01;;;;;;;;;;;8.40;99.90;;;;;;5088507;28;19912;-66
2021/03/24 10:56:31;;;;;;;;;;;8.40;99.90;;;;;;5087984;28;20292;-66
2021/03/24 10:59:05;;;;;;;;;;;8.40;99.90;;;;;;5087314;28;19924;-66
2021/03/24 11:01:37;;;;;;;;;;;8.50;99.90;;;;;;5088746;28;20288;-66
2021/03/24 11:04:22;;;;;;;;;;;8.60;99.90;;;;;;5089649;28;19912;-66
2021/03/24 11:06:52;;;;;;;;;;;8.60;99.90;;;;;;5089990;28;19912;-65
2021/03/24 11:09:19;;;;;;;;;;;8.50;99.90;;;;;;5088825;28;19912;-64
2021/03/24 11:12:15;;;;;;;;;;;8.50;99.90;;;;;;5088644;28;19912;-65
2021/03/24 11:14:41;;;;;;;;;;;8.60;99.90;;;;;;5085319;28;19942;-66
2021/03/24 11:17:09;;;;;;;;;;;8.50;99.90;;;;;;5087293;28;19920;-66
2021/03/24 11:19:39;;;;;;;;;;;8.40;99.90;;;;;;5091504;28;19916;-66
2021/03/24 11:22:05;;;;;;;;;;;8.40;99.90;;;;;;5091738;28;19920;-66
2021/03/24 11:24:43;;;;;;;;;;;8.50;99.90;;;;;;5091777;28;20288;-65
2021/03/24 11:27:27;;;;;;;;;;;8.60;99.90;;;;;;5088327;28;19919;-66
2021/03/24 11:30:14;;;;;;;;;;;8.60;99.90;;;;;;5088468;28;19931;-65
2021/03/24 11:32:49;;;;;;;;;;;8.60;99.90;;;;;;5091001;28;19913;-65
2021/03/24 11:35:31;;;;;;;;;;;8.60;99.90;;;;;;5090947;28;19912;-66
2021/03/24 11:38:05;;;;;;;;;;;8.60;99.90;;;;;;5088827;28;19942;-66
2021/03/24 11:40:39;;;;;;;;;;;8.60;99.90;;;;;;5084344;28;19916;-68
2021/03/24 11:43:07;;;;;;;;;;;8.30;99.90;;;;;;5084532;28;19916;-66
2021/03/24 11:45:33;;;;;;;;;;;8.30;99.90;;;;;;5090170;28;19916;-66
2021/03/24 11:48:01;;;;;;;;;;;8.30;99.90;;;;;;5086448;28;19912;-66
2021/03/24 11:50:54;;;;;;;;;;;8.30;99.90;;;;;;5091737;28;20289;-66
2021/03/24 11:53:28;;;;;;;;;;;8.30;99.90;;;;;;5089422;28;19920;-66
2021/03/24 11:55:56;;;;;;;;;;;8.20;99.90;;;;;;5089158;28;19919;-66
2021/03/24 11:58:37;;;;;;;;;;;8.20;99.90;;;;;;5090404;28;19933;-67
2021/03/24 12:01:21;;;;;;;;;;;8.20;99.90;;;;;;5092214;28;19916;-66
2021/03/24 12:04:05;;;;;;;;;;;8.10;99.90;;;;;;5090209;28;19920;-69
2021/03/24 12:06:32;;;;;;;;;;;8.20;99.90;;;;;;5089012;28;19916;-65
2021/03/24 12:09:02;;;;;;;;;;;8.10;99.90;;;;;;5091962;28;19912;-66
2021/03/24 12:11:29;;;;;;;;;;;8.10;99.90;;;;;;5087137;28;20276;-65
2021/03/24 12:14:04;;;;;;;;;;;8.00;99.90;;;;;;5090952;28;19917;-65
2021/03/24 12:16:38;;;;;;;;;;;8.10;99.90;;;;;;5088568;28;20295;-65
2021/03/24 12:19:04;;;;;;;;;;;8.20;99.90;;;;;;5090353;28;19923;-65
2021/03/24 12:21:31;;;;;;;;;;;8.20;99.90;;;;;;5088044;28;19920;-65
2021/03/24 12:23:58;;;;;;;;;;;8.30;99.90;;;;;;5089813;28;19912;-66
2021/03/24 12:26:44;;;;;;;;;;;8.20;99.90;;;;;;5088057;28;19912;-64
2021/03/24 12:29:20;;;;;;;;;;;8.10;99.90;;;;;;5091552;28;19924;-65
2021/03/24 12:31:50;;;;;;;;;;;8.00;99.90;;;;;;5086580;28;21626;-65
2021/03/24 12:34:16;;;;;;;;;;;8.00;99.90;;;;;;5087683;28;19912;-64
2021/03/24 12:36:46;;;;;;;;;;;7.90;99.90;;;;;;5091238;28;19931;-65
2021/03/24 12:39:21;;;;;;;;;;;8.00;99.90;;;;;;5088269;28;19912;-65
2021/03/24 12:41:49;;;;;;;;;;;8.00;99.90;;;;;;5088802;28;19912;-65
2021/03/24 12:44:34;;;;;;;;;;;8.10;99.90;;;;;;5089750;28;19924;-66
2021/03/24 12:47:01;;;;;;;;;;;8.10;99.90;;;;;;5087476;28;19919;-65
2021/03/24 12:49:31;;;;;;;;;;;8.00;99.90;;;;;;5087450;28;19912;-65
2021/03/24 12:52:00;;;;;;;;;;;8.00;99.90;;;;;;5090550;28;19912;-65
2021/03/24 12:54:26;;;;;;;;;;;7.90;99.90;;;;;;5091432;28;19913;-65
2021/03/24 12:57:14;;;;;;;;;;;7.90;99.90;;;;;;5087959;28;20462;-65
2021/03/24 12:59:59;;;;;;;;;;;7.80;99.90;;;;;;5088684;28;19916;-65
2021/03/24 13:02:30;;;;;;;;;;;7.80;99.90;;;;;;5085253;28;19912;-65
2021/03/24 13:04:56;;;;;;;;;;;7.80;99.90;;;;;;5088253;28;19927;-65
2021/03/24 13:07:27;;;;;;;;;;;7.80;99.90;;;;;;5088987;28;19995;-65
2021/03/24 13:09:56;;;;;;;;;;;7.80;99.90;;;;;;5088755;28;20395;-65
2021/03/24 13:12:30;;;;;;;;;;;7.80;99.90;;;;;;5089623;28;20283;-65
2021/03/24 13:14:56;;;;;;;;;;;7.90;99.90;;;;;;5086771;28;19912;-65
2021/03/24 13:17:29;;;;;;;;;;;7.90;99.90;;;;;;5089721;28;19924;-64
2021/03/24 13:19:55;;;;;;;;;;;8.00;99.90;;;;;;5086718;28;19934;-66
2021/03/24 13:22:26;;;;;;;;;;;8.00;99.90;;;;;;5089275;28;20015;-65
2021/03/24 13:25:15;;;;;;;;;;;8.10;99.90;;;;;;5092232;28;20281;-65
2021/03/24 13:27:59;;;;;;;;;;;8.10;99.90;;;;;;5074339;28;20257;-65
2021/03/24 13:30:29;;;;;;;;;;;8.20;99.90;;;;;;5094027;28;19931;-65
2021/03/24 13:32:56;;;;;;;;;;;8.20;99.90;;;;;;5094732;28;19915;-65
2021/03/24 13:35:30;;;;;;;;;;;8.20;99.90;;;;;;5091232;28;19916;-65
2021/03/24 13:37:55;;;;;;;;;;;8.20;99.90;;;;;;5091331;28;19928;-65
2021/03/24 13:40:28;;;;;;;;;;;8.20;99.90;;;;;;5095340;28;19925;-66
2021/03/24 13:43:05;;;;;;;;;;;8.10;99.90;;;;;;5094714;28;19908;-65
2021/03/24 13:45:36;;;;;;;;;;;8.10;99.90;;;;;;5092580;28;19912;-65
2021/03/24 13:48:04;;;;;;;;;;;8.10;99.90;;;;;;5093898;28;19916;-65
2021/03/24 13:50:37;;;;;;;;;;;8.10;99.90;;;;;;5093073;28;20316;-65
2021/03/24 13:53:33;;;;;;;;;;;8.10;99.90;;;;;;5094413;28;19909;-65
2021/03/24 13:56:14;;;;;;;;;;;8.20;99.90;;;;;;5090580;28;20266;-66
2021/03/24 13:58:58;;;;;;;;;;;8.30;99.90;;;;;;5094793;28;19920;-65
2021/03/24 14:01:29;;;;;;;;;;;8.30;99.90;;;;;;5094182;28;20288;-64
2021/03/24 14:04:09;;;;;;;;;;;8.10;99.90;;;;;;5090908;28;19912;-65
2021/03/24 14:06:40;;;;;;;;;;;8.10;99.90;;;;;;5094416;28;19921;-64
2021/03/24 14:09:24;;;;;;;;;;;8.10;99.90;;;;;;5092085;28;19908;-64
2021/03/24 14:12:03;;;;;;;;;;;8.10;99.90;;;;;;5095374;28;20273;-64
2021/03/24 14:14:35;;;;;;;;;;;8.10;99.90;;;;;;5093342;28;19908;-64
2021/03/24 14:17:05;;;;;;;;;;;8.20;99.90;;;;;;5082550;28;19925;-64
2021/03/24 14:19:44;;;;;;;;;;;8.10;99.90;;;;;;5079900;28;19917;-64
2021/03/24 14:22:09;;;;;;;;;;;8.20;99.90;;;;;;5073135;28;19912;-64
2021/03/24 14:24:52;;;;;;;;;;;8.20;99.90;;;;;;5073556;28;19912;-64
2021/03/24 14:27:18;;;;;;;;;;;8.20;99.90;;;;;;5073737;28;19908;-65
2021/03/24 14:29:48;;;;;;;;;;;8.20;99.90;;;;;;5074420;28;19930;-65
2021/03/24 14:32:19;;;;;;;;;;;8.30;99.90;;;;;;5079293;28;19912;-65
2021/03/24 14:35:20;;;;;;;;;;;8.30;99.90;;;;;;5093139;28;19908;-65
2021/03/24 14:37:46;;;;;;;;;;;8.30;99.90;;;;;;5033610;28;19921;-64
2021/03/24 14:40:12;;;;;;;;;;;8.40;99.90;;;;;;5061790;28;20011;-64
2021/03/24 14:42:41;;;;;;;;;;;8.50;99.90;;;;;;5081615;28;19947;-65
2021/03/24 14:45:19;;;;;;;;;;;8.50;99.90;;;;;;5075615;28;19912;-64
2021/03/24 14:48:03;;;;;;;;;;;8.50;99.90;;;;;;5088250;28;19927;-64
2021/03/24 14:50:29;;;;;;;;;;;8.50;99.90;;;;;;5076009;28;19920;-65
2021/03/24 14:52:55;;;;;;;;;;;8.50;99.90;;;;;;5074910;28;19920;-65
2021/03/24 14:55:24;;;;;;;;;;;8.50;99.90;;;;;;5074410;28;19912;-65